sensor_id;sensor_type;location;lat;lon;timestamp;pressure;altitude;pressure_sealevel;temperature;humidity
68525;BME280;55524;51.380;13.372;2022-08-04T00:04:03;100449.16;;;19.57;57.23
68525;BME280;55524;51.380;13.372;2022-08-04T00:06:45;100441.69;;;19.49;56.17
68525;BME280;55524;51.380;13.372;2022-08-04T00:09:37;100449.59;;;19.51;55.50
68525;BME280;55524;51.380;13.372;2022-08-04T00:12:06;100452.78;;;19.56;57.04
68525;BME280;55524;51.380;13.372;2022-08-04T00:14:39;100458.13;;;19.56;57.26
68525;BME280;55524;51.380;13.372;2022-08-04T00:17:06;100448.63;;;19.52;56.08
68525;BME280;55524;51.380;13.372;2022-08-04T00:19:40;100460.31;;;19.51;57.30
68525;BME280;55524;51.380;13.372;2022-08-04T00:22:09;100455.81;;;19.51;57.12
68525;BME280;55524;51.380;13.372;2022-08-04T00:24:37;100458.47;;;19.51;57.88
68525;BME280;55524;51.380;13.372;2022-08-04T00:27:04;100457.84;;;19.48;57.14
68525;BME280;55524;51.380;13.372;2022-08-04T00:29:32;100451.00;;;19.44;56.43
68525;BME280;55524;51.380;13.372;2022-08-04T00:31:58;100443.22;;;19.40;55.09
68525;BME280;55524;51.380;13.372;2022-08-04T00:34:28;100453.31;;;19.37;56.03
68525;BME280;55524;51.380;13.372;2022-08-04T00:36:57;100447.81;;;19.38;55.56
68525;BME280;55524;51.380;13.372;2022-08-04T00:39:24;100443.44;;;19.37;56.11
68525;BME280;55524;51.380;13.372;2022-08-04T00:42:09;100455.66;;;19.41;56.72
68525;BME280;55524;51.380;13.372;2022-08-04T00:56:15;100445.63;;;19.32;55.86
68525;BME280;55524;51.380;13.372;2022-08-04T01:01:54;100445.06;;;19.27;56.15
68525;BME280;55524;51.380;13.372;2022-08-04T01:07:45;100455.28;;;19.22;56.91
68525;BME280;55524;51.380;13.372;2022-08-04T01:16:04;100464.06;;;19.24;59.60
68525;BME280;55524;51.380;13.372;2022-08-04T01:22:03;100463.66;;;19.17;58.15
68525;BME280;55524;51.380;13.372;2022-08-04T01:27:29;100458.09;;;19.08;57.65
68525;BME280;55524;51.380;13.372;2022-08-04T01:30:00;100460.16;;;19.04;59.04
68525;BME280;55524;51.380;13.372;2022-08-04T01:32:52;100472.31;;;18.97;59.54
68525;BME280;55524;51.380;13.372;2022-08-04T01:38:12;100476.16;;;18.93;61.20
68525;BME280;55524;51.380;13.372;2022-08-04T01:40:42;100493.19;;;18.92;63.81
68525;BME280;55524;51.380;13.372;2022-08-04T01:43:09;100490.31;;;18.82;64.64
68525;BME280;55524;51.380;13.372;2022-08-04T01:45:40;100479.59;;;18.70;62.33
68525;BME280;55524;51.380;13.372;2022-08-04T01:48:07;100481.81;;;18.63;63.36
68525;BME280;55524;51.380;13.372;2022-08-04T01:50:38;100476.59;;;18.61;64.69
68525;BME280;55524;51.380;13.372;2022-08-04T01:53:04;100484.72;;;18.60;64.46
68525;BME280;55524;51.380;13.372;2022-08-04T01:55:32;100485.38;;;18.51;64.79
68525;BME280;55524;51.380;13.372;2022-08-04T01:58:00;100471.66;;;18.42;62.57
68525;BME280;55524;51.380;13.372;2022-08-04T02:00:28;100477.66;;;18.46;62.59
68525;BME280;55524;51.380;13.372;2022-08-04T02:02:55;100487.72;;;18.42;64.98
68525;BME280;55524;51.380;13.372;2022-08-04T02:05:25;100470.50;;;18.34;63.30
68525;BME280;55524;51.380;13.372;2022-08-04T02:08:19;100480.22;;;18.35;65.32
68525;BME280;55524;51.380;13.372;2022-08-04T02:11:12;100471.34;;;18.34;63.91
68525;BME280;55524;51.380;13.372;2022-08-04T02:16:48;100459.47;;;18.26;62.95
68525;BME280;55524;51.380;13.372;2022-08-04T02:21:56;100470.78;;;18.16;68.84
68525;BME280;55524;51.380;13.372;2022-08-04T02:24:32;100460.41;;;18.12;67.68
68525;BME280;55524;51.380;13.372;2022-08-04T02:27:01;100453.44;;;18.09;69.34
68525;BME280;55524;51.380;13.372;2022-08-04T02:32:02;100452.81;;;18.06;70.05
68525;BME280;55524;51.380;13.372;2022-08-04T02:34:53;100457.28;;;18.05;71.57
68525;BME280;55524;51.380;13.372;2022-08-04T02:37:20;100445.50;;;17.95;70.06
68525;BME280;55524;51.380;13.372;2022-08-04T02:39:52;100448.06;;;17.97;71.35
68525;BME280;55524;51.380;13.372;2022-08-04T02:42:19;100436.84;;;17.91;70.06
68525;BME280;55524;51.380;13.372;2022-08-04T02:44:50;100435.66;;;17.96;68.85
68525;BME280;55524;51.380;13.372;2022-08-04T02:47:24;100434.81;;;17.95;69.33
68525;BME280;55524;51.380;13.372;2022-08-04T02:49:52;100434.69;;;17.97;69.11
68525;BME280;55524;51.380;13.372;2022-08-04T02:52:19;100427.53;;;17.97;69.24
68525;BME280;55524;51.380;13.372;2022-08-04T02:54:48;100436.31;;;17.99;69.94
68525;BME280;55524;51.380;13.372;2022-08-04T02:57:17;100429.16;;;18.00;68.88
68525;BME280;55524;51.380;13.372;2022-08-04T03:02:49;100431.94;;;17.98;72.12
68525;BME280;55524;51.380;13.372;2022-08-04T03:05:24;100430.72;;;17.89;71.06
68525;BME280;55524;51.380;13.372;2022-08-04T03:25:21;100443.78;;;17.54;71.34
68525;BME280;55524;51.380;13.372;2022-08-04T03:31:09;100428.28;;;17.59;69.16
68525;BME280;55524;51.380;13.372;2022-08-04T03:34:02;100439.50;;;17.64;68.66
68525;BME280;55524;51.380;13.372;2022-08-04T04:00:20;100454.34;;;17.56;73.35
68525;BME280;55524;51.380;13.372;2022-08-04T04:03:21;100455.31;;;17.55;72.21
68525;BME280;55524;51.380;13.372;2022-08-04T04:17:41;100459.28;;;17.62;73.71
68525;BME280;55524;51.380;13.372;2022-08-04T04:25:56;100448.72;;;17.73;70.39
68525;BME280;55524;51.380;13.372;2022-08-04T04:28:31;100453.50;;;17.82;72.74
68525;BME280;55524;51.380;13.372;2022-08-04T04:31:14;100448.91;;;17.84;70.76
68525;BME280;55524;51.380;13.372;2022-08-04T04:34:07;100459.19;;;17.90;71.19
68525;BME280;55524;51.380;13.372;2022-08-04T04:48:11;100456.47;;;18.30;70.87
68525;BME280;55524;51.380;13.372;2022-08-04T04:54:10;100447.69;;;18.54;72.34
68525;BME280;55524;51.380;13.372;2022-08-04T04:59:26;100442.28;;;18.92;70.64
68525;BME280;55524;51.380;13.372;2022-08-04T05:02:21;100449.00;;;19.10;70.45
68525;BME280;55524;51.380;13.372;2022-08-04T05:08:16;100435.13;;;19.77;67.51
68525;BME280;55524;51.380;13.372;2022-08-04T05:16:46;100418.69;;;20.73;63.71
68525;BME280;55524;51.380;13.372;2022-08-04T05:21:48;100410.53;;;21.18;62.05
68525;BME280;55524;51.380;13.372;2022-08-04T05:26:59;100414.41;;;21.48;61.88
68525;BME280;55524;51.380;13.372;2022-08-04T05:29:35;100403.28;;;21.73;60.39
68525;BME280;55524;51.380;13.372;2022-08-04T05:32:05;100404.16;;;21.95;60.36
68525;BME280;55524;51.380;13.372;2022-08-04T05:34:40;100402.13;;;22.08;59.89
68525;BME280;55524;51.380;13.372;2022-08-04T05:37:09;100387.69;;;22.30;58.84
68525;BME280;55524;51.380;13.372;2022-08-04T05:39:48;100390.00;;;22.44;58.57
68525;BME280;55524;51.380;13.372;2022-08-04T05:42:16;100381.31;;;22.71;57.12
68525;BME280;55524;51.380;13.372;2022-08-04T05:44:43;100382.50;;;22.88;56.50
68525;BME280;55524;51.380;13.372;2022-08-04T05:47:11;100380.72;;;22.98;56.58
68525;BME280;55524;51.380;13.372;2022-08-04T05:49:38;100379.06;;;23.17;55.57
68525;BME280;55524;51.380;13.372;2022-08-04T05:52:07;100369.28;;;23.45;54.88
68525;BME280;55524;51.380;13.372;2022-08-04T05:54:35;100377.34;;;23.54;54.35
68525;BME280;55524;51.380;13.372;2022-08-04T05:57:04;100368.41;;;23.64;54.29
68525;BME280;55524;51.380;13.372;2022-08-04T05:59:33;100363.44;;;23.78;54.33
68525;BME280;55524;51.380;13.372;2022-08-04T06:02:02;100349.91;;;23.98;52.46
68525;BME280;55524;51.380;13.372;2022-08-04T06:04:38;100346.03;;;24.20;52.02
68525;BME280;55524;51.380;13.372;2022-08-04T06:07:05;100351.78;;;24.35;52.00
68525;BME280;55524;51.380;13.372;2022-08-04T06:09:32;100351.50;;;24.47;51.12
68525;BME280;55524;51.380;13.372;2022-08-04T06:12:06;100355.25;;;24.64;52.10
68525;BME280;55524;51.380;13.372;2022-08-04T06:14:42;100360.44;;;24.75;51.46
68525;BME280;55524;51.380;13.372;2022-08-04T06:17:12;100344.31;;;25.01;49.76
68525;BME280;55524;51.380;13.372;2022-08-04T06:19:40;100340.06;;;25.26;48.70
68525;BME280;55524;51.380;13.372;2022-08-04T06:22:09;100333.00;;;25.51;47.11
68525;BME280;55524;51.380;13.372;2022-08-04T06:24:38;100329.75;;;25.66;46.46
68525;BME280;55524;51.380;13.372;2022-08-04T06:27:06;100326.16;;;25.83;45.76
68525;BME280;55524;51.380;13.372;2022-08-04T06:29:34;100323.34;;;25.93;45.51
68525;BME280;55524;51.380;13.372;2022-08-04T06:32:05;100322.75;;;26.07;45.19
68525;BME280;55524;51.380;13.372;2022-08-04T06:34:57;100327.41;;;26.23;44.87
68525;BME280;55524;51.380;13.372;2022-08-04T06:37:25;100324.25;;;26.36;44.88
68525;BME280;55524;51.380;13.372;2022-08-04T06:39:52;100316.88;;;26.46;44.39
68525;BME280;55524;51.380;13.372;2022-08-04T06:42:22;100315.09;;;26.71;43.13
68525;BME280;55524;51.380;13.372;2022-08-04T06:44:53;100318.19;;;26.84;43.09
68525;BME280;55524;51.380;13.372;2022-08-04T06:47:20;100314.66;;;27.00;42.52
68525;BME280;55524;51.380;13.372;2022-08-04T06:49:49;100307.56;;;27.07;42.17
68525;BME280;55524;51.380;13.372;2022-08-04T06:52:17;100305.00;;;27.06;42.29
68525;BME280;55524;51.380;13.372;2022-08-04T06:54:54;100305.06;;;27.30;42.11
68525;BME280;55524;51.380;13.372;2022-08-04T06:57:28;100299.13;;;27.43;41.25
68525;BME280;55524;51.380;13.372;2022-08-04T07:00:08;100298.78;;;27.54;41.40
68525;BME280;55524;51.380;13.372;2022-08-04T07:02:49;100295.53;;;27.67;40.73
68525;BME280;55524;51.380;13.372;2022-08-04T07:05:17;100299.78;;;27.69;40.95
68525;BME280;55524;51.380;13.372;2022-08-04T07:07:44;100287.22;;;27.93;39.86
68525;BME280;55524;51.380;13.372;2022-08-04T07:10:11;100283.28;;;28.04;39.65
68525;BME280;55524;51.380;13.372;2022-08-04T07:12:39;100289.00;;;28.17;39.49
68525;BME280;55524;51.380;13.372;2022-08-04T07:15:07;100284.03;;;28.37;38.97
68525;BME280;55524;51.380;13.372;2022-08-04T07:17:35;100282.06;;;28.54;38.09
68525;BME280;55524;51.380;13.372;2022-08-04T07:20:04;100274.00;;;28.68;38.17
68525;BME280;55524;51.380;13.372;2022-08-04T07:22:31;100276.56;;;28.93;37.82
68525;BME280;55524;51.380;13.372;2022-08-04T07:24:58;100278.59;;;28.99;39.17
68525;BME280;55524;51.380;13.372;2022-08-04T07:27:25;100279.38;;;29.08;38.38
68525;BME280;55524;51.380;13.372;2022-08-04T07:30:01;100283.97;;;29.30;39.32
68525;BME280;55524;51.380;13.372;2022-08-04T07:32:28;100275.66;;;29.47;36.96
68525;BME280;55524;51.380;13.372;2022-08-04T07:34:55;100273.38;;;29.58;36.47
68525;BME280;55524;51.380;13.372;2022-08-04T07:37:22;100273.94;;;29.69;35.80
68525;BME280;55524;51.380;13.372;2022-08-04T07:39:51;100273.00;;;29.76;36.49
68525;BME280;55524;51.380;13.372;2022-08-04T07:42:18;100263.25;;;29.97;35.11
68525;BME280;55524;51.380;13.372;2022-08-04T07:44:45;100261.38;;;30.12;34.95
68525;BME280;55524;51.380;13.372;2022-08-04T07:47:12;100257.72;;;30.34;34.59
68525;BME280;55524;51.380;13.372;2022-08-04T07:49:40;100257.06;;;30.69;33.79
68525;BME280;55524;51.380;13.372;2022-08-04T07:52:07;100259.78;;;30.83;33.10
68525;BME280;55524;51.380;13.372;2022-08-04T07:54:34;100254.47;;;30.97;34.38
68525;BME280;55524;51.380;13.372;2022-08-04T07:57:01;100253.16;;;31.14;33.17
68525;BME280;55524;51.380;13.372;2022-08-04T07:59:28;100254.34;;;31.54;32.14
68525;BME280;55524;51.380;13.372;2022-08-04T08:01:56;100259.88;;;31.61;34.15
68525;BME280;55524;51.380;13.372;2022-08-04T08:04:23;100250.91;;;31.74;32.86
68525;BME280;55524;51.380;13.372;2022-08-04T08:06:50;100253.03;;;31.78;32.90
68525;BME280;55524;51.380;13.372;2022-08-04T08:09:22;100248.03;;;32.17;32.38
68525;BME280;55524;51.380;13.372;2022-08-04T08:11:50;100254.16;;;32.19;33.17
68525;BME280;55524;51.380;13.372;2022-08-04T08:14:17;100237.94;;;32.17;31.96
68525;BME280;55524;51.380;13.372;2022-08-04T08:16:47;100233.34;;;32.31;30.78
68525;BME280;55524;51.380;13.372;2022-08-04T08:19:14;100240.00;;;32.43;31.43
68525;BME280;55524;51.380;13.372;2022-08-04T08:21:48;100236.19;;;32.44;30.47
68525;BME280;55524;51.380;13.372;2022-08-04T08:24:16;100232.22;;;32.53;30.14
68525;BME280;55524;51.380;13.372;2022-08-04T08:26:42;100223.44;;;32.71;30.31
68525;BME280;55524;51.380;13.372;2022-08-04T08:29:08;100232.16;;;33.15;30.27
68525;BME280;55524;51.380;13.372;2022-08-04T08:31:35;100227.53;;;33.15;29.25
68525;BME280;55524;51.380;13.372;2022-08-04T08:34:02;100222.88;;;33.29;29.90
68525;BME280;55524;51.380;13.372;2022-08-04T08:36:32;100224.56;;;33.43;28.72
68525;BME280;55524;51.380;13.372;2022-08-04T08:39:20;100213.59;;;33.37;28.13
68525;BME280;55524;51.380;13.372;2022-08-04T08:51:34;100217.81;;;33.66;27.95
68525;BME280;55524;51.380;13.372;2022-08-04T08:56:32;100221.13;;;33.88;28.31
68525;BME280;55524;51.380;13.372;2022-08-04T09:15:30;100212.50;;;34.42;27.15
68525;BME280;55524;51.380;13.372;2022-08-04T09:18:27;100216.16;;;34.74;27.36
68525;BME280;55524;51.380;13.372;2022-08-04T09:21:05;100205.59;;;34.71;25.17
68525;BME280;55524;51.380;13.372;2022-08-04T09:29:39;100207.78;;;34.56;25.60
68525;BME280;55524;51.380;13.372;2022-08-04T09:38:01;100202.13;;;35.39;24.60
68525;BME280;55524;51.380;13.372;2022-08-04T09:43:43;100184.69;;;35.70;23.31
68525;BME280;55524;51.380;13.372;2022-08-04T09:46:23;100189.03;;;35.60;24.07
68525;BME280;55524;51.380;13.372;2022-08-04T09:48:58;100188.06;;;35.91;22.94
68525;BME280;55524;51.380;13.372;2022-08-04T09:54:43;100190.91;;;35.84;23.83
68525;BME280;55524;51.380;13.372;2022-08-04T10:00:29;100183.84;;;36.25;23.30
68525;BME280;55524;51.380;13.372;2022-08-04T10:02:59;100194.16;;;36.00;25.37
68525;BME280;55524;51.380;13.372;2022-08-04T10:11:36;100174.81;;;36.36;22.54
68525;BME280;55524;51.380;13.372;2022-08-04T10:19:40;100181.13;;;35.88;24.05
68525;BME280;55524;51.380;13.372;2022-08-04T10:22:27;100182.84;;;35.83;23.13
68525;BME280;55524;51.380;13.372;2022-08-04T10:28:05;100173.63;;;36.14;23.17
68525;BME280;55524;51.380;13.372;2022-08-04T10:30:38;100167.28;;;36.43;22.96
68525;BME280;55524;51.380;13.372;2022-08-04T10:33:17;100172.81;;;36.43;23.07
68525;BME280;55524;51.380;13.372;2022-08-04T10:36:05;100163.06;;;35.74;23.18
68525;BME280;55524;51.380;13.372;2022-08-04T10:38:51;100175.03;;;36.65;24.73
68525;BME280;55524;51.380;13.372;2022-08-04T10:41:52;100165.69;;;36.66;23.77
68525;BME280;55524;51.380;13.372;2022-08-04T10:44:46;100156.47;;;36.60;23.34
68525;BME280;55524;51.380;13.372;2022-08-04T10:47:19;100159.34;;;36.65;24.51
68525;BME280;55524;51.380;13.372;2022-08-04T10:49:58;100148.06;;;36.97;22.62
68525;BME280;55524;51.380;13.372;2022-08-04T10:52:47;100162.22;;;36.71;25.90
68525;BME280;55524;51.380;13.372;2022-08-04T10:56:01;100162.72;;;37.45;25.56
68525;BME280;55524;51.380;13.372;2022-08-04T10:58:24;100155.47;;;37.91;23.59
68525;BME280;55524;51.380;13.372;2022-08-04T11:00:56;100132.91;;;38.22;21.49
68525;BME280;55524;51.380;13.372;2022-08-04T11:03:39;100135.97;;;37.57;21.40
68525;BME280;55524;51.380;13.372;2022-08-04T11:06:09;100130.72;;;37.44;21.63
68525;BME280;55524;51.380;13.372;2022-08-04T11:08:47;100141.53;;;37.85;22.99
68525;BME280;55524;51.380;13.372;2022-08-04T11:14:05;100125.06;;;37.27;21.12
68525;BME280;55524;51.380;13.372;2022-08-04T11:16:43;100128.72;;;37.79;21.55
68525;BME280;55524;51.380;13.372;2022-08-04T11:19:33;100130.41;;;37.69;21.27
68525;BME280;55524;51.380;13.372;2022-08-04T11:22:09;100145.00;;;38.33;22.34
68525;BME280;55524;51.380;13.372;2022-08-04T11:27:13;100134.91;;;37.58;20.71
68525;BME280;55524;51.380;13.372;2022-08-04T11:29:55;100139.47;;;38.04;20.59
68525;BME280;55524;51.380;13.372;2022-08-04T11:32:33;100146.38;;;37.78;21.68
68525;BME280;55524;51.380;13.372;2022-08-04T11:35:04;100143.00;;;38.17;20.70
68525;BME280;55524;51.380;13.372;2022-08-04T11:37:40;100138.16;;;38.07;21.47
68525;BME280;55524;51.380;13.372;2022-08-04T11:40:30;100142.97;;;38.00;21.24
68525;BME280;55524;51.380;13.372;2022-08-04T11:43:02;100142.88;;;37.95;21.15
68525;BME280;55524;51.380;13.372;2022-08-04T11:45:35;100143.19;;;38.10;22.11
68525;BME280;55524;51.380;13.372;2022-08-04T11:48:23;100138.66;;;38.21;20.36
68525;BME280;55524;51.380;13.372;2022-08-04T11:50:54;100129.69;;;37.73;20.48
68525;BME280;55524;51.380;13.372;2022-08-04T11:53:26;100134.72;;;37.76;20.49
68525;BME280;55524;51.380;13.372;2022-08-04T11:56:00;100130.69;;;37.55;20.48
68525;BME280;55524;51.380;13.372;2022-08-04T11:58:28;100127.91;;;37.67;20.33
68525;BME280;55524;51.380;13.372;2022-08-04T12:01:22;100128.88;;;37.61;20.88
68525;BME280;55524;51.380;13.372;2022-08-04T12:04:00;100139.09;;;37.49;21.78
68525;BME280;55524;51.380;13.372;2022-08-04T12:06:54;100133.00;;;37.99;20.73
68525;BME280;55524;51.380;13.372;2022-08-04T12:09:55;100139.91;;;37.37;21.03
68525;BME280;55524;51.380;13.372;2022-08-04T12:15:29;100128.75;;;38.08;20.84
68525;BME280;55524;51.380;13.372;2022-08-04T12:20:44;100131.56;;;37.84;20.62
68525;BME280;55524;51.380;13.372;2022-08-04T12:23:28;100124.50;;;37.77;20.24
68525;BME280;55524;51.380;13.372;2022-08-04T12:26:00;100121.03;;;37.81;20.35
68525;BME280;55524;51.380;13.372;2022-08-04T12:28:42;100118.13;;;37.48;20.36
68525;BME280;55524;51.380;13.372;2022-08-04T12:31:13;100121.13;;;38.27;20.88
68525;BME280;55524;51.380;13.372;2022-08-04T12:33:54;100116.44;;;38.27;20.37
68525;BME280;55524;51.380;13.372;2022-08-04T12:42:02;100109.72;;;36.96;21.11
68525;BME280;55524;51.380;13.372;2022-08-04T12:44:37;100107.41;;;37.63;20.23
68525;BME280;55524;51.380;13.372;2022-08-04T12:47:06;100107.38;;;38.44;19.87
68525;BME280;55524;51.380;13.372;2022-08-04T12:49:34;100101.47;;;38.85;19.04
68525;BME280;55524;51.380;13.372;2022-08-04T12:52:07;100096.31;;;38.60;19.04
68525;BME280;55524;51.380;13.372;2022-08-04T12:54:35;100098.97;;;39.01;19.69
68525;BME280;55524;51.380;13.372;2022-08-04T12:57:07;100097.13;;;38.90;18.58
68525;BME280;55524;51.380;13.372;2022-08-04T12:59:38;100098.34;;;38.99;20.76
68525;BME280;55524;51.380;13.372;2022-08-04T13:02:29;100082.69;;;39.04;19.51
68525;BME280;55524;51.380;13.372;2022-08-04T13:04:57;100083.81;;;38.86;19.27
68525;BME280;55524;51.380;13.372;2022-08-04T13:07:26;100089.72;;;38.95;20.28
68525;BME280;55524;51.380;13.372;2022-08-04T13:09:53;100094.84;;;38.86;19.49
68525;BME280;55524;51.380;13.372;2022-08-04T13:12:24;100086.38;;;39.10;19.45
68525;BME280;55524;51.380;13.372;2022-08-04T13:14:57;100081.63;;;38.89;18.96
68525;BME280;55524;51.380;13.372;2022-08-04T13:17:25;100094.38;;;37.47;22.93
68525;BME280;55524;51.380;13.372;2022-08-04T13:19:51;100089.97;;;36.99;22.15
68525;BME280;55524;51.380;13.372;2022-08-04T13:22:27;100095.59;;;37.79;23.26
68525;BME280;55524;51.380;13.372;2022-08-04T13:24:57;100073.78;;;38.35;19.72
68525;BME280;55524;51.380;13.372;2022-08-04T13:27:24;100076.91;;;38.72;20.42
68525;BME280;55524;51.380;13.372;2022-08-04T13:29:54;100066.63;;;38.84;20.09
68525;BME280;55524;51.380;13.372;2022-08-04T13:32:22;100056.88;;;39.59;19.61
68525;BME280;55524;51.380;13.372;2022-08-04T13:34:51;100067.47;;;39.85;20.80
68525;BME280;55524;51.380;13.372;2022-08-04T13:37:22;100054.66;;;39.78;18.26
68525;BME280;55524;51.380;13.372;2022-08-04T13:39:50;100055.44;;;39.13;19.29
68525;BME280;55524;51.380;13.372;2022-08-04T13:42:18;100050.84;;;39.85;18.30
68525;BME280;55524;51.380;13.372;2022-08-04T13:44:48;100047.97;;;40.23;17.75
68525;BME280;55524;51.380;13.372;2022-08-04T13:47:21;100055.13;;;39.48;18.38
68525;BME280;55524;51.380;13.372;2022-08-04T13:50:12;100059.66;;;39.38;19.71
68525;BME280;55524;51.380;13.372;2022-08-04T13:52:44;100052.72;;;39.35;19.16
68525;BME280;55524;51.380;13.372;2022-08-04T13:55:17;100054.19;;;39.87;18.58
68525;BME280;55524;51.380;13.372;2022-08-04T13:57:48;100065.09;;;39.71;21.68
68525;BME280;55524;51.380;13.372;2022-08-04T14:00:15;100050.34;;;39.88;20.07
68525;BME280;55524;51.380;13.372;2022-08-04T14:03:05;100051.19;;;40.15;20.24
68525;BME280;55524;51.380;13.372;2022-08-04T14:05:32;100025.25;;;39.72;18.33
68525;BME280;55524;51.380;13.372;2022-08-04T14:08:08;100026.44;;;39.81;18.79
68525;BME280;55524;51.380;13.372;2022-08-04T14:10:37;100002.88;;;40.06;17.80
68525;BME280;55524;51.380;13.372;2022-08-04T14:13:05;100020.25;;;39.08;18.78
68525;BME280;55524;51.380;13.372;2022-08-04T14:15:40;100027.09;;;39.23;19.17
68525;BME280;55524;51.380;13.372;2022-08-04T14:18:18;100029.66;;;39.51;20.47
68525;BME280;55524;51.380;13.372;2022-08-04T14:21:11;100022.78;;;39.32;19.73
68525;BME280;55524;51.380;13.372;2022-08-04T14:23:46;100021.13;;;39.31;18.92
68525;BME280;55524;51.380;13.372;2022-08-04T14:26:33;100020.47;;;39.46;18.71
68525;BME280;55524;51.380;13.372;2022-08-04T14:29:14;100007.84;;;39.55;17.68
68525;BME280;55524;51.380;13.372;2022-08-04T14:31:41;100013.53;;;39.43;18.82
68525;BME280;55524;51.380;13.372;2022-08-04T14:34:08;100014.88;;;39.85;18.09
68525;BME280;55524;51.380;13.372;2022-08-04T14:36:42;100012.09;;;39.63;18.94
68525;BME280;55524;51.380;13.372;2022-08-04T14:39:09;100013.19;;;39.18;18.68
68525;BME280;55524;51.380;13.372;2022-08-04T14:41:46;100030.94;;;38.04;21.25
68525;BME280;55524;51.380;13.372;2022-08-04T14:44:12;100029.97;;;38.27;21.38
68525;BME280;55524;51.380;13.372;2022-08-04T14:46:59;100027.31;;;37.86;23.18
68525;BME280;55524;51.380;13.372;2022-08-04T14:49:26;100015.53;;;37.62;20.79
68525;BME280;55524;51.380;13.372;2022-08-04T14:51:59;100019.28;;;37.45;20.77
68525;BME280;55524;51.380;13.372;2022-08-04T14:54:34;100020.53;;;37.13;21.44
68525;BME280;55524;51.380;13.372;2022-08-04T14:57:03;100030.72;;;36.89;21.97
68525;BME280;55524;51.380;13.372;2022-08-04T14:59:49;100018.13;;;36.82;21.83
68525;BME280;55524;51.380;13.372;2022-08-04T15:02:16;100018.28;;;36.75;22.10
68525;BME280;55524;51.380;13.372;2022-08-04T15:04:44;100009.16;;;36.75;22.06
68525;BME280;55524;51.380;13.372;2022-08-04T15:07:11;100024.63;;;36.64;23.85
68525;BME280;55524;51.380;13.372;2022-08-04T15:09:37;100020.91;;;36.93;23.51
68525;BME280;55524;51.380;13.372;2022-08-04T15:12:08;100019.94;;;36.76;23.68
68525;BME280;55524;51.380;13.372;2022-08-04T15:14:35;100014.53;;;36.69;23.92
68525;BME280;55524;51.380;13.372;2022-08-04T15:17:02;100011.31;;;37.20;23.52
68525;BME280;55524;51.380;13.372;2022-08-04T15:19:29;100000.78;;;38.14;20.71
68525;BME280;55524;51.380;13.372;2022-08-04T15:21:56;99995.19;;;38.26;20.48
68525;BME280;55524;51.380;13.372;2022-08-04T15:24:22;99992.31;;;38.71;19.42
68525;BME280;55524;51.380;13.372;2022-08-04T15:26:50;100000.53;;;38.66;20.47
68525;BME280;55524;51.380;13.372;2022-08-04T15:29:30;99990.31;;;38.67;20.06
68525;BME280;55524;51.380;13.372;2022-08-04T15:32:05;99997.13;;;37.97;21.27
68525;BME280;55524;51.380;13.372;2022-08-04T15:34:49;100006.41;;;38.53;21.56
68525;BME280;55524;51.380;13.372;2022-08-04T15:40:17;99984.47;;;38.46;20.02
68525;BME280;55524;51.380;13.372;2022-08-04T15:43:12;99985.22;;;38.58;21.37
68525;BME280;55524;51.380;13.372;2022-08-04T15:45:54;99980.16;;;38.72;20.11
68525;BME280;55524;51.380;13.372;2022-08-04T15:48:23;99968.78;;;38.69;19.80
68525;BME280;55524;51.380;13.372;2022-08-04T15:59:02;99966.28;;;38.67;20.51
68525;BME280;55524;51.380;13.372;2022-08-04T16:01:28;99966.91;;;38.35;20.06
68525;BME280;55524;51.380;13.372;2022-08-04T16:03:55;99963.13;;;37.79;20.76
68525;BME280;55524;51.380;13.372;2022-08-04T16:19:35;99955.22;;;38.84;19.64
68525;BME280;55524;51.380;13.372;2022-08-04T16:22:36;99947.56;;;38.91;19.14
68525;BME280;55524;51.380;13.372;2022-08-04T16:25:05;99956.44;;;38.54;20.35
68525;BME280;55524;51.380;13.372;2022-08-04T16:27:36;99951.47;;;38.73;19.11
68525;BME280;55524;51.380;13.372;2022-08-04T16:30:05;99955.75;;;38.47;19.91
68525;BME280;55524;51.380;13.372;2022-08-04T16:32:42;99958.06;;;38.33;19.52
68525;BME280;55524;51.380;13.372;2022-08-04T16:35:25;99957.00;;;38.23;19.74
68525;BME280;55524;51.380;13.372;2022-08-04T16:38:11;99959.28;;;37.80;20.24
68525;BME280;55524;51.380;13.372;2022-08-04T16:40:38;99959.03;;;38.44;19.61
68525;BME280;55524;51.380;13.372;2022-08-04T16:43:09;99951.91;;;38.31;19.64
68525;BME280;55524;51.380;13.372;2022-08-04T16:45:54;99954.41;;;37.99;20.23
68525;BME280;55524;51.380;13.372;2022-08-04T16:48:23;99953.75;;;37.63;20.55
68525;BME280;55524;51.380;13.372;2022-08-04T16:53:31;99955.28;;;37.43;20.86
68525;BME280;55524;51.380;13.372;2022-08-04T16:55:58;99955.50;;;37.29;20.87
68525;BME280;55524;51.380;13.372;2022-08-04T16:58:26;99956.34;;;37.41;20.97
68525;BME280;55524;51.380;13.372;2022-08-04T17:00:53;99948.41;;;37.05;21.15
68525;BME280;55524;51.380;13.372;2022-08-04T17:03:20;99953.28;;;37.26;20.98
68525;BME280;55524;51.380;13.372;2022-08-04T17:05:47;99968.22;;;37.42;22.71
68525;BME280;55524;51.380;13.372;2022-08-04T17:08:14;99955.63;;;37.34;21.54
68525;BME280;55524;51.380;13.372;2022-08-04T17:10:44;99965.22;;;36.68;24.79
68525;BME280;55524;51.380;13.372;2022-08-04T17:13:34;99953.34;;;36.79;23.53
68525;BME280;55524;51.380;13.372;2022-08-04T17:16:04;99952.88;;;36.47;22.70
68525;BME280;55524;51.380;13.372;2022-08-04T17:18:33;99953.53;;;36.89;24.15
68525;BME280;55524;51.380;13.372;2022-08-04T17:21:07;99951.63;;;36.78;24.06